Time;durP1;ratioP1;P1;durP2;ratioP2;P2;SDS_P1;SDS_P2;PMS_P1;PMS_P2;Temp;Humidity;BMP_temperature;BMP_pressure;BME280_temperature;BME280_humidity;BME280_pressure;Samples;Min_cycle;Max_cycle;Signal;HPM_P1;HPM_P2
2021/01/17 00:01:15;;;;;;;;;;;0.10;99.90;;;;;;5088912;28;20403;-83
2021/01/17 00:03:41;;;;;;;;;;;0.10;99.90;;;;;;5073624;28;19908;-83
2021/01/17 00:06:07;;;;;;;;;;;0.10;99.90;;;;;;5073758;28;20386;-83
2021/01/17 00:08:32;;;;;;;;;;;0.20;99.90;;;;;;5073999;28;19905;-83
2021/01/17 00:10:58;;;;;;;;;;;0.10;99.90;;;;;;5089896;28;19957;-83
2021/01/17 00:13:23;;;;;;;;;;;0.10;99.90;;;;;;5070292;28;19939;-83
2021/01/17 00:15:49;;;;;;;;;;;0.10;99.90;;;;;;5072639;28;19904;-83
2021/01/17 00:18:14;;;;;;;;;;;0.20;99.90;;;;;;5089097;28;19912;-83
2021/01/17 00:20:40;;;;;;;;;;;0.20;99.90;;;;;;5091439;28;19904;-83
2021/01/17 00:23:05;;;;;;;;;;;0.10;99.90;;;;;;5073706;28;19947;-83
2021/01/17 00:25:31;;;;;;;;;;;0.10;99.90;;;;;;5073822;28;19911;-83
2021/01/17 00:27:58;;;;;;;;;;;0.10;99.90;;;;;;5071660;28;19953;-82
2021/01/17 00:30:25;;;;;;;;;;;0.20;99.90;;;;;;5088221;28;19995;-83
2021/01/17 00:32:51;;;;;;;;;;;0.20;99.90;;;;;;5072775;28;19910;-84
2021/01/17 00:35:17;;;;;;;;;;;0.20;99.90;;;;;;5071556;28;19915;-83
2021/01/17 00:37:42;;;;;;;;;;;0.20;99.90;;;;;;5075556;28;20017;-83
2021/01/17 00:40:08;;;;;;;;;;;0.20;99.90;;;;;;5077496;28;19908;-82
2021/01/17 00:42:34;;;;;;;;;;;0.20;99.90;;;;;;5074896;28;20368;-84
2021/01/17 00:44:59;;;;;;;;;;;0.20;99.90;;;;;;5093553;28;19998;-83
2021/01/17 00:47:25;;;;;;;;;;;0.20;99.90;;;;;;5091896;28;20383;-83
2021/01/17 00:49:50;;;;;;;;;;;0.10;99.90;;;;;;5094548;28;19998;-83
2021/01/17 00:52:16;;;;;;;;;;;0.20;99.90;;;;;;5075164;28;19915;-83
2021/01/17 00:54:42;;;;;;;;;;;0.20;99.90;;;;;;5076961;28;19915;-83
2021/01/17 00:57:07;;;;;;;;;;;0.20;99.90;;;;;;5076805;28;19916;-83
2021/01/17 00:59:33;;;;;;;;;;;0.10;99.90;;;;;;5074398;28;19908;-84
2021/01/17 01:01:58;;;;;;;;;;;0.20;99.90;;;;;;5076202;28;20390;-84
2021/01/17 01:04:23;;;;;;;;;;;0.20;99.90;;;;;;5076615;28;20252;-83
2021/01/17 01:06:49;;;;;;;;;;;0.20;99.90;;;;;;5076310;28;20332;-83
2021/01/17 01:09:15;;;;;;;;;;;0.20;99.90;;;;;;5071648;28;21355;-84
2021/01/17 01:11:41;;;;;;;;;;;0.20;99.90;;;;;;5072507;28;19912;-84
2021/01/17 01:14:07;;;;;;;;;;;0.20;99.90;;;;;;5072061;28;20371;-83
2021/01/17 01:16:32;;;;;;;;;;;0.20;99.90;;;;;;5068778;28;19962;-84
2021/01/17 01:18:58;;;;;;;;;;;0.20;99.90;;;;;;5093267;28;19949;-83
2021/01/17 01:21:27;;;;;;;;;;;0.20;99.90;;;;;;5070691;28;20406;-83
2021/01/17 01:23:53;;;;;;;;;;;0.20;99.90;;;;;;5094271;28;19907;-83
2021/01/17 01:26:22;;;;;;;;;;;0.20;99.90;;;;;;5076929;28;19904;-83
2021/01/17 01:28:51;;;;;;;;;;;0.20;99.90;;;;;;5069269;28;19911;-82
2021/01/17 01:31:21;;;;;;;;;;;0.20;99.90;;;;;;5075092;28;19904;-82
2021/01/17 01:33:46;;;;;;;;;;;0.20;99.90;;;;;;5073879;28;20375;-82
2021/01/17 01:36:24;;;;;;;;;;;0.20;99.90;;;;;;5093895;28;19904;-82
2021/01/17 01:38:50;;;;;;;;;;;0.20;99.90;;;;;;5093376;28;19904;-82
2021/01/17 01:41:16;;;;;;;;;;;0.20;99.90;;;;;;5071025;28;19918;-82
2021/01/17 01:43:42;;;;;;;;;;;0.20;99.90;;;;;;5070635;28;19908;-82
2021/01/17 01:46:11;;;;;;;;;;;0.20;99.90;;;;;;5072780;28;19904;-82
2021/01/17 01:48:36;;;;;;;;;;;0.20;99.90;;;;;;5092370;28;19912;-82
2021/01/17 01:51:02;;;;;;;;;;;0.20;99.90;;;;;;5073599;28;20007;-82
2021/01/17 01:53:31;;;;;;;;;;;0.20;99.90;;;;;;5069903;28;19904;-82
2021/01/17 01:55:57;;;;;;;;;;;0.20;99.90;;;;;;5078262;28;19931;-83
2021/01/17 01:58:23;;;;;;;;;;;0.20;99.90;;;;;;5087890;28;19998;-83
2021/01/17 02:00:52;;;;;;;;;;;0.20;99.90;;;;;;5085086;28;19952;-83
2021/01/17 02:03:17;;;;;;;;;;;0.20;99.90;;;;;;5084629;28;19907;-84
2021/01/17 02:05:43;;;;;;;;;;;0.20;99.90;;;;;;5092870;28;20381;-84
2021/01/17 02:08:27;;;;;;;;;;;0.20;99.90;;;;;;5088690;28;20451;-85
2021/01/17 02:10:56;;;;;;;;;;;0.20;99.90;;;;;;5088735;28;19905;-85
2021/01/17 02:13:30;;;;;;;;;;;0.20;99.90;;;;;;5088889;28;20257;-85
2021/01/17 02:15:56;;;;;;;;;;;0.20;99.90;;;;;;5092834;28;19908;-85
2021/01/17 02:18:22;;;;;;;;;;;0.20;99.90;;;;;;5105255;28;19943;-85
2021/01/17 02:20:50;;;;;;;;;;;0.20;99.90;;;;;;5087655;28;19938;-85
2021/01/17 02:23:18;;;;;;;;;;;0.30;99.90;;;;;;5086284;28;19951;-85
2021/01/17 02:25:43;;;;;;;;;;;0.30;99.90;;;;;;5091725;28;19927;-85
2021/01/17 02:28:10;;;;;;;;;;;0.20;99.90;;;;;;5087436;28;20355;-85
2021/01/17 02:30:38;;;;;;;;;;;0.20;99.90;;;;;;5087486;28;19904;-86
2021/01/17 02:33:07;;;;;;;;;;;0.20;99.90;;;;;;5088747;28;19904;-86
2021/01/17 02:35:32;;;;;;;;;;;0.30;99.90;;;;;;5087165;28;19904;-85
2021/01/17 02:38:11;;;;;;;;;;;0.20;99.90;;;;;;5091636;28;20037;-85
2021/01/17 02:40:47;;;;;;;;;;;0.30;99.90;;;;;;5086800;28;19960;-83
2021/01/17 02:43:13;;;;;;;;;;;0.20;99.90;;;;;;5086982;28;20470;-84
2021/01/17 02:45:38;;;;;;;;;;;0.30;99.90;;;;;;5088549;28;19953;-83
2021/01/17 02:48:04;;;;;;;;;;;0.30;99.90;;;;;;5090367;28;19958;-83
2021/01/17 02:50:29;;;;;;;;;;;0.30;99.90;;;;;;5091370;28;19987;-82
2021/01/17 02:53:04;;;;;;;;;;;0.30;99.90;;;;;;5090269;28;19904;-82
2021/01/17 02:55:30;;;;;;;;;;;0.20;99.90;;;;;;5092276;28;20273;-81
2021/01/17 02:57:57;;;;;;;;;;;0.20;99.90;;;;;;5092371;28;19904;-81
2021/01/17 03:00:24;;;;;;;;;;;0.20;99.90;;;;;;5092643;28;19904;-81
2021/01/17 03:02:50;;;;;;;;;;;0.20;99.90;;;;;;5069526;28;19908;-80
2021/01/17 03:05:17;;;;;;;;;;;0.20;99.90;;;;;;5091851;28;19927;-81
2021/01/17 03:07:47;;;;;;;;;;;0.20;99.90;;;;;;5069536;28;19957;-81
2021/01/17 03:10:12;;;;;;;;;;;0.20;99.90;;;;;;5071937;28;19915;-81
2021/01/17 03:12:38;;;;;;;;;;;0.20;99.90;;;;;;5072500;28;20295;-82
2021/01/17 03:15:04;;;;;;;;;;;0.20;99.90;;;;;;5071050;28;20307;-81
2021/01/17 03:17:30;;;;;;;;;;;0.20;99.90;;;;;;5090296;28;19960;-81
2021/01/17 03:19:55;;;;;;;;;;;0.30;99.90;;;;;;5072765;28;19950;-81
2021/01/17 03:22:21;;;;;;;;;;;0.20;99.90;;;;;;5092000;28;19908;-81
2021/01/17 03:24:46;;;;;;;;;;;0.20;99.90;;;;;;5092436;28;20253;-80
2021/01/17 03:27:12;;;;;;;;;;;0.20;99.90;;;;;;5089917;28;19904;-80
2021/01/17 03:29:37;;;;;;;;;;;0.20;99.90;;;;;;5090434;28;19937;-80
2021/01/17 03:32:03;;;;;;;;;;;0.20;99.90;;;;;;5088848;28;19958;-80
2021/01/17 03:34:28;;;;;;;;;;;0.30;99.90;;;;;;5073341;28;19999;-79
2021/01/17 03:36:54;;;;;;;;;;;0.30;99.90;;;;;;5090752;28;19915;-80
2021/01/17 03:39:19;;;;;;;;;;;0.30;99.90;;;;;;5091749;28;20033;-79
2021/01/17 03:41:45;;;;;;;;;;;0.30;99.90;;;;;;5074265;28;19908;-79
2021/01/17 03:44:10;;;;;;;;;;;0.30;99.90;;;;;;5089895;28;19905;-79
2021/01/17 03:46:35;;;;;;;;;;;0.20;99.90;;;;;;5090453;28;19977;-79
2021/01/17 03:49:01;;;;;;;;;;;0.30;99.90;;;;;;5070624;28;19908;-78
2021/01/17 03:51:26;;;;;;;;;;;0.20;99.90;;;;;;5091256;28;20351;-78
2021/01/17 03:53:52;;;;;;;;;;;0.30;99.90;;;;;;5072819;28;19904;-78
2021/01/17 03:56:17;;;;;;;;;;;0.20;99.90;;;;;;5091230;28;19938;-78
2021/01/17 03:58:43;;;;;;;;;;;0.30;99.90;;;;;;5074046;28;19908;-78
2021/01/17 04:01:08;;;;;;;;;;;0.20;99.90;;;;;;5063346;28;19912;-78
2021/01/17 04:03:34;;;;;;;;;;;0.30;99.90;;;;;;5073211;28;19969;-78
2021/01/17 04:05:59;;;;;;;;;;;0.30;99.90;;;;;;5073495;28;19911;-78
2021/01/17 04:08:25;;;;;;;;;;;0.30;99.90;;;;;;5091371;28;19908;-78
2021/01/17 04:10:50;;;;;;;;;;;0.30;99.90;;;;;;5075361;28;19904;-79
2021/01/17 04:13:16;;;;;;;;;;;0.30;99.90;;;;;;5073817;28;20002;-79
2021/01/17 04:15:41;;;;;;;;;;;0.30;99.90;;;;;;5094589;28;19904;-79
2021/01/17 04:18:07;;;;;;;;;;;0.30;99.90;;;;;;5075631;28;20432;-79
2021/01/17 04:20:32;;;;;;;;;;;0.30;99.90;;;;;;5061734;28;19904;-78
2021/01/17 04:23:01;;;;;;;;;;;0.30;99.90;;;;;;5095531;28;19908;-78
2021/01/17 04:25:28;;;;;;;;;;;0.30;99.90;;;;;;5095521;28;19904;-79
2021/01/17 04:27:53;;;;;;;;;;;0.30;99.90;;;;;;5072625;28;19904;-79
2021/01/17 04:30:19;;;;;;;;;;;0.30;99.90;;;;;;5091427;28;19949;-79
2021/01/17 04:32:44;;;;;;;;;;;0.30;99.90;;;;;;5094501;28;19920;-79
2021/01/17 04:35:13;;;;;;;;;;;0.30;99.90;;;;;;5094077;28;19904;-79
2021/01/17 04:37:38;;;;;;;;;;;0.30;99.90;;;;;;5076381;28;20364;-78
2021/01/17 04:40:04;;;;;;;;;;;0.30;99.90;;;;;;5095414;28;20002;-79
2021/01/17 04:42:34;;;;;;;;;;;0.30;99.90;;;;;;5077082;28;20009;-78
2021/01/17 04:45:02;;;;;;;;;;;0.30;99.90;;;;;;5072350;28;19962;-79
2021/01/17 04:47:28;;;;;;;;;;;0.30;99.90;;;;;;5072202;28;19903;-78
2021/01/17 04:49:58;;;;;;;;;;;0.30;99.90;;;;;;5093995;28;19917;-79
2021/01/17 04:52:28;;;;;;;;;;;0.40;99.90;;;;;;5092994;28;19957;-78
2021/01/17 04:54:53;;;;;;;;;;;0.30;99.90;;;;;;5094860;28;19904;-78
2021/01/17 04:57:19;;;;;;;;;;;0.40;99.90;;;;;;5086268;28;19916;-78
2021/01/17 05:00:01;;;;;;;;;;;0.40;99.90;;;;;;5091784;28;20485;-78
2021/01/17 05:02:32;;;;;;;;;;;0.30;99.90;;;;;;5096134;28;19918;-79
2021/01/17 05:05:11;;;;;;;;;;;0.30;99.90;;;;;;5091918;28;19961;-79
2021/01/17 05:07:37;;;;;;;;;;;0.30;99.90;;;;;;5091946;28;19908;-79
2021/01/17 05:10:03;;;;;;;;;;;0.30;99.90;;;;;;5091507;28;19999;-79
2021/01/17 05:12:35;;;;;;;;;;;0.40;99.90;;;;;;5094865;28;20323;-79
2021/01/17 05:15:02;;;;;;;;;;;0.40;99.90;;;;;;5089597;28;19988;-79
2021/01/17 05:17:27;;;;;;;;;;;0.40;99.90;;;;;;5112767;28;19903;-79
2021/01/17 05:19:53;;;;;;;;;;;0.40;99.90;;;;;;5113713;28;20412;-79
2021/01/17 05:22:19;;;;;;;;;;;0.40;99.90;;;;;;5113288;28;20282;-79
2021/01/17 05:24:45;;;;;;;;;;;0.40;99.90;;;;;;5115117;28;19961;-79
2021/01/17 05:27:11;;;;;;;;;;;0.40;99.90;;;;;;5115053;28;19939;-79
2021/01/17 05:29:36;;;;;;;;;;;0.40;99.90;;;;;;5094623;28;20319;-79
2021/01/17 05:32:03;;;;;;;;;;;0.40;99.90;;;;;;5092722;28;20430;-79
2021/01/17 05:34:29;;;;;;;;;;;0.50;99.90;;;;;;5095565;28;19904;-80
2021/01/17 05:37:07;;;;;;;;;;;0.40;99.90;;;;;;5113202;28;20395;-80
2021/01/17 05:39:53;;;;;;;;;;;0.40;99.90;;;;;;5113103;28;20275;-81
2021/01/17 05:42:22;;;;;;;;;;;0.40;99.90;;;;;;5090887;28;19916;-81
2021/01/17 05:44:48;;;;;;;;;;;0.50;99.90;;;;;;5091528;28;19903;-81
2021/01/17 05:47:13;;;;;;;;;;;0.40;99.90;;;;;;5126827;27;19995;-81
2021/01/17 05:49:39;;;;;;;;;;;0.40;99.90;;;;;;5112597;28;19910;-81
2021/01/17 05:52:11;;;;;;;;;;;0.40;99.90;;;;;;5095239;28;19907;-81
2021/01/17 05:54:37;;;;;;;;;;;0.50;99.90;;;;;;5089200;28;19914;-81
2021/01/17 05:57:11;;;;;;;;;;;0.50;99.90;;;;;;5082192;28;19932;-81
2021/01/17 05:59:37;;;;;;;;;;;0.50;99.90;;;;;;5069703;28;20022;-81
2021/01/17 06:02:03;;;;;;;;;;;0.50;99.90;;;;;;5093128;28;19912;-81
2021/01/17 06:04:30;;;;;;;;;;;0.50;99.90;;;;;;5069700;28;19904;-81
2021/01/17 06:06:56;;;;;;;;;;;0.50;99.90;;;;;;5074644;28;19904;-81
2021/01/17 06:09:22;;;;;;;;;;;0.50;99.90;;;;;;5093963;28;19908;-80
2021/01/17 06:11:57;;;;;;;;;;;0.60;99.90;;;;;;5091690;28;19935;-80
2021/01/17 06:14:23;;;;;;;;;;;0.50;99.90;;;;;;5068167;28;19904;-80
2021/01/17 06:16:50;;;;;;;;;;;0.60;99.90;;;;;;5066031;28;20333;-80
2021/01/17 06:19:15;;;;;;;;;;;0.60;99.90;;;;;;5068956;28;19908;-80
2021/01/17 06:21:46;;;;;;;;;;;0.60;99.90;;;;;;5067939;28;19904;-80
2021/01/17 06:24:12;;;;;;;;;;;0.60;99.90;;;;;;5070706;28;19947;-80
2021/01/17 06:26:39;;;;;;;;;;;0.60;99.90;;;;;;5075223;28;19949;-80
2021/01/17 06:29:09;;;;;;;;;;;0.60;99.90;;;;;;5088608;28;19904;-80
2021/01/17 06:31:35;;;;;;;;;;;0.60;99.90;;;;;;5070407;28;19930;-80
2021/01/17 06:34:08;;;;;;;;;;;0.60;99.90;;;;;;5073021;28;20367;-80
2021/01/17 06:36:34;;;;;;;;;;;0.60;99.90;;;;;;5068564;28;19998;-80
2021/01/17 06:39:00;;;;;;;;;;;0.60;99.90;;;;;;5073282;28;19910;-80
2021/01/17 06:41:32;;;;;;;;;;;0.70;99.90;;;;;;5093230;28;19904;-80
2021/01/17 06:44:05;;;;;;;;;;;0.70;99.90;;;;;;5092888;28;19916;-80
2021/01/17 06:46:36;;;;;;;;;;;0.70;99.90;;;;;;5067492;28;19992;-80
2021/01/17 06:49:17;;;;;;;;;;;0.70;99.90;;;;;;5089264;28;19912;-80
2021/01/17 06:51:43;;;;;;;;;;;0.70;99.90;;;;;;5091923;28;19904;-80
2021/01/17 06:54:10;;;;;;;;;;;0.80;99.90;;;;;;5072716;28;19911;-80
2021/01/17 06:56:36;;;;;;;;;;;0.80;99.90;;;;;;5077792;28;19919;-80
2021/01/17 06:59:02;;;;;;;;;;;0.80;99.90;;;;;;5112522;28;20366;-80
2021/01/17 07:01:28;;;;;;;;;;;0.80;99.90;;;;;;5112076;28;19908;-80
2021/01/17 07:03:56;;;;;;;;;;;0.80;99.90;;;;;;5090015;28;19907;-79
2021/01/17 07:06:29;;;;;;;;;;;0.80;99.90;;;;;;5111614;28;20401;-79
2021/01/17 07:08:59;;;;;;;;;;;0.80;99.90;;;;;;5087437;28;20252;-79
2021/01/17 07:11:44;;;;;;;;;;;0.80;99.90;;;;;;5093570;28;20002;-79
2021/01/17 07:14:09;;;;;;;;;;;0.80;99.90;;;;;;5074898;28;20460;-79
2021/01/17 07:16:35;;;;;;;;;;;0.80;99.90;;;;;;5074947;28;19908;-79
2021/01/17 07:19:02;;;;;;;;;;;0.80;99.90;;;;;;5097518;28;19947;-79
2021/01/17 07:21:32;;;;;;;;;;;0.80;99.90;;;;;;5082023;28;19954;-80
2021/01/17 07:24:01;;;;;;;;;;;0.80;99.90;;;;;;5082358;28;19998;-80
2021/01/17 07:26:31;;;;;;;;;;;0.90;99.90;;;;;;5079188;28;19914;-79
2021/01/17 07:29:00;;;;;;;;;;;0.90;99.90;;;;;;5075635;28;19904;-80
2021/01/17 07:31:30;;;;;;;;;;;0.80;99.90;;;;;;5075628;28;20464;-80
2021/01/17 07:33:57;;;;;;;;;;;0.90;99.90;;;;;;5081800;28;19908;-80
2021/01/17 07:36:25;;;;;;;;;;;0.90;99.90;;;;;;5089279;28;19908;-80
2021/01/17 07:38:54;;;;;;;;;;;0.90;99.90;;;;;;5084619;28;20420;-80
2021/01/17 07:41:25;;;;;;;;;;;0.90;99.90;;;;;;5083418;28;19965;-81
2021/01/17 07:43:57;;;;;;;;;;;1.00;99.90;;;;;;5086206;28;20260;-81
2021/01/17 07:46:22;;;;;;;;;;;1.00;99.90;;;;;;5085596;28;19911;-81
2021/01/17 07:48:48;;;;;;;;;;;1.00;99.90;;;;;;5102591;28;19904;-81
2021/01/17 07:51:15;;;;;;;;;;;1.00;99.90;;;;;;5084855;28;19910;-81
2021/01/17 07:53:49;;;;;;;;;;;1.00;99.90;;;;;;5104402;28;19911;-81
2021/01/17 07:56:34;;;;;;;;;;;1.10;99.90;;;;;;5086471;28;20290;-81
2021/01/17 07:59:00;;;;;;;;;;;1.10;99.90;;;;;;5104063;28;19904;-81
2021/01/17 08:01:35;;;;;;;;;;;1.10;99.90;;;;;;5101976;28;19947;-81
2021/01/17 08:04:03;;;;;;;;;;;1.10;99.90;;;;;;5102159;28;20591;-81
2021/01/17 08:06:47;;;;;;;;;;;1.20;99.90;;;;;;5085508;28;19987;-81
2021/01/17 08:09:13;;;;;;;;;;;1.20;99.90;;;;;;5086376;28;19911;-81
2021/01/17 08:11:48;;;;;;;;;;;1.20;99.90;;;;;;5085709;28;20420;-81
2021/01/17 08:14:20;;;;;;;;;;;1.30;99.90;;;;;;5103081;28;19995;-81
2021/01/17 08:17:05;;;;;;;;;;;1.30;99.90;;;;;;5083703;28;19927;-81
2021/01/17 08:19:37;;;;;;;;;;;1.30;99.90;;;;;;5099909;28;20359;-81
2021/01/17 08:22:18;;;;;;;;;;;1.30;99.90;;;;;;5103846;28;19907;-81
2021/01/17 08:24:43;;;;;;;;;;;1.40;99.90;;;;;;5085888;28;20267;-81
2021/01/17 08:27:09;;;;;;;;;;;1.40;99.90;;;;;;5084100;28;19925;-81
2021/01/17 08:30:06;;;;;;;;;;;1.40;99.90;;;;;;5097040;28;19912;-81
2021/01/17 08:32:41;;;;;;;;;;;1.40;99.90;;;;;;5066664;28;19904;-81
2021/01/17 08:35:24;;;;;;;;;;;1.40;99.90;;;;;;5075223;28;19916;-82
2021/01/17 08:37:53;;;;;;;;;;;1.50;99.90;;;;;;5074934;28;20423;-81
2021/01/17 08:40:38;;;;;;;;;;;1.50;99.90;;;;;;5075086;28;20347;-81
2021/01/17 08:43:05;;;;;;;;;;;1.50;99.90;;;;;;5073384;28;20370;-81
2021/01/17 08:45:33;;;;;;;;;;;1.50;99.90;;;;;;5074617;28;20485;-80
2021/01/17 08:48:03;;;;;;;;;;;1.60;99.90;;;;;;5103724;28;20271;-81
2021/01/17 08:50:29;;;;;;;;;;;1.70;99.90;;;;;;5102916;28;20244;-82
2021/01/17 08:53:07;;;;;;;;;;;1.70;99.90;;;;;;5111763;28;19903;-82
2021/01/17 08:55:48;;;;;;;;;;;1.80;99.90;;;;;;5092381;28;20356;-82
2021/01/17 08:58:15;;;;;;;;;;;1.80;99.90;;;;;;5075295;28;19908;-83
2021/01/17 09:00:56;;;;;;;;;;;1.90;99.90;;;;;;5077995;28;19904;-83
2021/01/17 09:03:25;;;;;;;;;;;1.90;99.90;;;;;;5057469;28;19908;-83
2021/01/17 09:05:51;;;;;;;;;;;2.00;99.90;;;;;;5088020;28;19911;-82
2021/01/17 09:08:18;;;;;;;;;;;2.00;99.90;;;;;;5086861;28;19904;-82
2021/01/17 09:10:43;;;;;;;;;;;2.00;99.90;;;;;;5074674;28;20319;-82
2021/01/17 09:13:16;;;;;;;;;;;2.00;99.90;;;;;;5075590;28;19904;-82
2021/01/17 09:15:47;;;;;;;;;;;2.10;99.90;;;;;;5070754;28;19904;-82
2021/01/17 09:18:22;;;;;;;;;;;2.10;99.90;;;;;;5074173;28;19911;-82
2021/01/17 09:20:49;;;;;;;;;;;2.10;99.90;;;;;;5090760;28;20360;-81
2021/01/17 09:23:15;;;;;;;;;;;2.20;99.90;;;;;;5094672;28;19969;-82
2021/01/17 09:25:41;;;;;;;;;;;2.20;99.90;;;;;;5075527;28;19908;-82
2021/01/17 09:28:09;;;;;;;;;;;2.20;99.90;;;;;;5075660;28;19908;-82
2021/01/17 09:30:35;;;;;;;;;;;2.20;99.90;;;;;;5071359;28;19912;-82
2021/01/17 09:33:01;;;;;;;;;;;2.20;99.90;;;;;;5076156;28;20287;-82
2021/01/17 09:35:26;;;;;;;;;;;2.30;99.90;;;;;;5072783;28;19949;-82
2021/01/17 09:37:58;;;;;;;;;;;2.30;99.90;;;;;;5074767;28;19904;-82
2021/01/17 09:40:23;;;;;;;;;;;2.30;99.90;;;;;;5077011;28;19911;-82
2021/01/17 09:42:51;;;;;;;;;;;2.40;99.90;;;;;;5070800;28;19908;-83
2021/01/17 09:45:18;;;;;;;;;;;2.40;99.90;;;;;;5076997;28;19904;-83
2021/01/17 09:47:43;;;;;;;;;;;2.50;99.90;;;;;;5070459;28;20065;-82
2021/01/17 09:50:10;;;;;;;;;;;2.60;99.90;;;;;;5095318;28;20022;-83
2021/01/17 09:52:39;;;;;;;;;;;2.70;99.90;;;;;;5075189;28;19912;-83
2021/01/17 09:55:08;;;;;;;;;;;2.80;99.90;;;;;;5072692;28;19915;-83
2021/01/17 09:57:38;;;;;;;;;;;2.80;99.90;;;;;;5089438;28;20596;-83
2021/01/17 10:00:08;;;;;;;;;;;2.90;99.90;;;;;;5091795;28;19908;-84
2021/01/17 10:02:36;;;;;;;;;;;2.90;99.90;;;;;;5094735;28;19915;-87
2021/01/17 10:05:01;;;;;;;;;;;2.90;99.90;;;;;;5073456;28;19977;-85
2021/01/17 10:07:27;;;;;;;;;;;3.00;99.90;;;;;;5089273;28;19908;-85
2021/01/17 10:09:53;;;;;;;;;;;3.00;99.90;;;;;;5072088;28;20351;-86
2021/01/17 10:12:20;;;;;;;;;;;3.10;99.90;;;;;;5077084;28;19904;-86
2021/01/17 10:14:45;;;;;;;;;;;3.20;99.90;;;;;;5068516;28;20398;-85
2021/01/17 10:17:11;;;;;;;;;;;3.30;99.90;;;;;;5066526;28;19911;-85
2021/01/17 10:19:38;;;;;;;;;;;3.30;99.90;;;;;;5070097;28;19915;-86
2021/01/17 10:22:04;;;;;;;;;;;3.40;99.90;;;;;;5070863;28;19911;-86
2021/01/17 10:24:33;;;;;;;;;;;3.50;99.90;;;;;;5062553;28;19904;-85
2021/01/17 10:26:59;;;;;;;;;;;3.60;99.90;;;;;;5094256;28;19972;-85
2021/01/17 10:29:26;;;;;;;;;;;3.60;99.90;;;;;;5090439;28;20427;-84
2021/01/17 10:31:55;;;;;;;;;;;3.60;99.90;;;;;;5089218;28;19915;-85
2021/01/17 10:34:22;;;;;;;;;;;3.70;99.90;;;;;;5074255;28;20037;-84
2021/01/17 10:36:48;;;;;;;;;;;3.70;99.90;;;;;;5090943;28;20368;-84
2021/01/17 10:39:16;;;;;;;;;;;3.70;99.90;;;;;;5096943;28;20436;-85
2021/01/17 10:41:42;;;;;;;;;;;3.70;99.90;;;;;;5072067;28;20049;-84
2021/01/17 10:44:11;;;;;;;;;;;3.80;99.90;;;;;;5084867;28;20423;-84
2021/01/17 10:46:37;;;;;;;;;;;3.80;99.90;;;;;;5069622;28;19912;-83
2021/01/17 10:49:12;;;;;;;;;;;3.90;99.90;;;;;;5089545;28;19927;-84
2021/01/17 10:51:42;;;;;;;;;;;4.10;99.90;;;;;;5086943;28;19950;-84
2021/01/17 10:54:09;;;;;;;;;;;4.40;99.90;;;;;;5059407;28;19908;-83
2021/01/17 10:56:35;;;;;;;;;;;4.60;99.90;;;;;;5087401;28;19923;-83
2021/01/17 10:59:08;;;;;;;;;;;4.70;99.90;;;;;;5091520;28;19944;-83
2021/01/17 11:01:33;;;;;;;;;;;5.50;99.90;;;;;;5093150;28;20394;-84
2021/01/17 11:04:00;;;;;;;;;;;6.20;99.90;;;;;;5087330;28;19955;-84
2021/01/17 11:06:29;;;;;;;;;;;6.60;99.90;;;;;;5085792;28;19958;-83
2021/01/17 11:08:58;;;;;;;;;;;6.30;99.90;;;;;;5071787;28;19930;-83
2021/01/17 11:11:29;;;;;;;;;;;5.90;99.90;;;;;;5076457;28;19955;-83
2021/01/17 11:14:04;;;;;;;;;;;5.70;99.90;;;;;;5069493;28;20499;-83
2021/01/17 11:16:39;;;;;;;;;;;5.60;99.90;;;;;;5092163;28;19954;-83
2021/01/17 11:19:05;;;;;;;;;;;5.50;99.90;;;;;;5090804;28;19926;-83
2021/01/17 11:21:31;;;;;;;;;;;5.40;99.90;;;;;;5083484;28;19904;-82
2021/01/17 11:23:57;;;;;;;;;;;5.30;99.90;;;;;;5065704;28;19973;-83
2021/01/17 11:26:24;;;;;;;;;;;5.30;99.90;;;;;;5075114;28;19999;-83
2021/01/17 11:28:59;;;;;;;;;;;5.20;99.90;;;;;;5088663;28;19904;-83
2021/01/17 11:31:24;;;;;;;;;;;5.30;99.90;;;;;;5083449;28;19911;-83
2021/01/17 11:33:50;;;;;;;;;;;6.10;99.90;;;;;;5084724;28;19904;-83
2021/01/17 11:36:21;;;;;;;;;;;6.70;99.90;;;;;;5089265;28;19915;-83
2021/01/17 11:38:48;;;;;;;;;;;7.10;99.90;;;;;;5090410;28;19982;-83
2021/01/17 11:41:14;;;;;;;;;;;6.90;99.90;;;;;;5090441;28;19904;-83
2021/01/17 11:43:40;;;;;;;;;;;6.50;99.90;;;;;;5085986;28;19934;-82
2021/01/17 11:46:07;;;;;;;;;;;6.20;99.90;;;;;;5083444;28;20363;-81
2021/01/17 11:48:33;;;;;;;;;;;5.90;99.90;;;;;;5081283;28;20384;-82
2021/01/17 11:50:59;;;;;;;;;;;5.80;99.90;;;;;;5081114;28;19908;-82
2021/01/17 11:53:28;;;;;;;;;;;5.70;99.90;;;;;;5079159;28;20276;-82
2021/01/17 11:55:54;;;;;;;;;;;5.70;99.90;;;;;;5085154;28;19970;-83
2021/01/17 11:58:19;;;;;;;;;;;5.70;99.90;;;;;;5082388;28;19951;-82
2021/01/17 12:00:48;;;;;;;;;;;5.70;99.90;;;;;;5076059;28;20055;-82
2021/01/17 12:03:23;;;;;;;;;;;5.90;99.90;;;;;;5083676;28;19915;-83
2021/01/17 12:06:05;;;;;;;;;;;5.90;99.90;;;;;;5086671;28;19983;-82
2021/01/17 12:08:49;;;;;;;;;;;5.90;99.90;;;;;;5076542;28;19904;-82
2021/01/17 12:11:33;;;;;;;;;;;5.90;99.90;;;;;;5085844;28;19915;-82
2021/01/17 12:14:00;;;;;;;;;;;5.90;99.90;;;;;;5087094;28;19908;-83
2021/01/17 12:16:32;;;;;;;;;;;5.90;99.90;;;;;;5088227;28;19912;-83
2021/01/17 12:18:58;;;;;;;;;;;5.90;99.90;;;;;;5086297;28;19973;-82
2021/01/17 12:21:24;;;;;;;;;;;6.00;99.90;;;;;;5091010;28;20419;-82
2021/01/17 12:23:50;;;;;;;;;;;6.20;99.90;;;;;;5088499;28;19992;-82
2021/01/17 12:26:16;;;;;;;;;;;6.40;99.90;;;;;;5081871;28;19958;-82
2021/01/17 12:28:42;;;;;;;;;;;6.40;99.90;;;;;;5087542;28;19911;-82
2021/01/17 12:31:17;;;;;;;;;;;6.60;99.90;;;;;;5070023;28;19904;-82
2021/01/17 12:33:43;;;;;;;;;;;6.70;99.90;;;;;;5073175;28;20064;-82
2021/01/17 12:36:10;;;;;;;;;;;6.80;99.90;;;;;;5092306;28;19945;-82
2021/01/17 12:38:36;;;;;;;;;;;6.90;99.90;;;;;;5078917;28;20355;-81
2021/01/17 12:41:06;;;;;;;;;;;6.90;99.90;;;;;;5067844;28;19915;-82
2021/01/17 12:43:31;;;;;;;;;;;6.90;99.90;;;;;;5094677;28;19908;-83
2021/01/17 12:45:57;;;;;;;;;;;6.90;99.90;;;;;;5075606;28;19904;-82
2021/01/17 12:48:22;;;;;;;;;;;7.00;99.90;;;;;;5108235;28;19999;-82
2021/01/17 12:50:47;;;;;;;;;;;7.10;99.90;;;;;;5071959;28;19948;-82
2021/01/17 12:53:13;;;;;;;;;;;7.30;99.90;;;;;;5060180;28;19912;-82
2021/01/17 12:55:40;;;;;;;;;;;7.60;99.90;;;;;;5076499;28;19911;-82
2021/01/17 12:58:08;;;;;;;;;;;7.70;99.90;;;;;;5077619;28;19908;-82
2021/01/17 13:00:33;;;;;;;;;;;7.80;99.90;;;;;;5077969;28;19908;-82
2021/01/17 13:03:00;;;;;;;;;;;7.80;99.90;;;;;;5077480;28;19908;-82
2021/01/17 13:05:26;;;;;;;;;;;8.00;99.90;;;;;;5078049;28;19914;-82
2021/01/17 13:07:51;;;;;;;;;;;8.20;99.90;;;;;;5077669;28;19904;-82
2021/01/17 13:10:17;;;;;;;;;;;8.40;99.90;;;;;;5078010;28;20444;-82
2021/01/17 13:12:42;;;;;;;;;;;8.60;99.90;;;;;;5077615;28;20271;-82
2021/01/17 13:15:08;;;;;;;;;;;8.50;99.90;;;;;;5077907;28;19904;-82
2021/01/17 13:17:34;;;;;;;;;;;8.40;99.90;;;;;;5096151;28;20271;-82
2021/01/17 13:19:59;;;;;;;;;;;8.40;99.90;;;;;;5077835;28;20287;-82
2021/01/17 13:22:28;;;;;;;;;;;8.40;99.90;;;;;;5077173;28;20382;-82
2021/01/17 13:24:53;;;;;;;;;;;8.20;99.90;;;;;;5077754;28;19904;-82
2021/01/17 13:27:19;;;;;;;;;;;8.10;99.90;;;;;;5077721;28;19905;-82
2021/01/17 13:29:44;;;;;;;;;;;8.00;99.90;;;;;;5077615;28;20391;-82
2021/01/17 13:32:10;;;;;;;;;;;8.00;99.90;;;;;;5077349;28;19908;-82
2021/01/17 13:34:35;;;;;;;;;;;7.90;99.90;;;;;;5074127;28;20379;-82
2021/01/17 13:37:01;;;;;;;;;;;7.80;99.90;;;;;;5072041;28;19911;-82
2021/01/17 13:39:30;;;;;;;;;;;7.60;99.90;;;;;;5077977;28;19911;-82
2021/01/17 13:42:01;;;;;;;;;;;7.40;99.90;;;;;;5073258;28;19904;-82
2021/01/17 13:44:27;;;;;;;;;;;7.30;99.90;;;;;;5069631;28;20547;-81
2021/01/17 13:46:53;;;;;;;;;;;7.20;99.90;;;;;;5094008;28;19953;-82
2021/01/17 13:49:18;;;;;;;;;;;7.20;99.90;;;;;;5093671;28;19904;-81
2021/01/17 13:51:44;;;;;;;;;;;7.10;99.90;;;;;;5093536;28;19922;-81
2021/01/17 13:54:09;;;;;;;;;;;7.10;99.90;;;;;;5075698;28;19990;-82
2021/01/17 13:56:38;;;;;;;;;;;7.10;99.90;;;;;;5080543;28;20012;-81
2021/01/17 13:59:04;;;;;;;;;;;7.10;99.90;;;;;;5092953;28;20359;-81
2021/01/17 14:01:30;;;;;;;;;;;7.10;99.90;;;;;;5092415;28;19911;-81
2021/01/17 14:03:55;;;;;;;;;;;7.10;99.90;;;;;;5091806;28;19911;-81
2021/01/17 14:06:20;;;;;;;;;;;7.10;99.90;;;;;;5093284;28;19911;-82
2021/01/17 14:08:46;;;;;;;;;;;7.10;99.90;;;;;;5112328;28;19953;-82
2021/01/17 14:11:11;;;;;;;;;;;7.10;99.90;;;;;;5091501;28;20252;-81
2021/01/17 14:13:37;;;;;;;;;;;7.10;99.90;;;;;;5095110;28;19908;-81
2021/01/17 14:16:02;;;;;;;;;;;7.10;99.90;;;;;;5094523;28;19951;-81
2021/01/17 14:18:28;;;;;;;;;;;7.10;99.90;;;;;;5110922;28;19954;-82
2021/01/17 14:20:53;;;;;;;;;;;7.10;99.90;;;;;;5093591;28;19951;-82
2021/01/17 14:23:20;;;;;;;;;;;7.10;99.90;;;;;;5111537;28;19945;-82
2021/01/17 14:25:45;;;;;;;;;;;7.10;99.90;;;;;;5093832;28;19998;-82
2021/01/17 14:28:11;;;;;;;;;;;7.10;99.90;;;;;;5094534;28;19946;-81
2021/01/17 14:30:36;;;;;;;;;;;7.00;99.90;;;;;;5095485;28;19914;-81
2021/01/17 14:33:02;;;;;;;;;;;7.00;99.90;;;;;;5095695;28;19907;-81
2021/01/17 14:35:27;;;;;;;;;;;7.00;99.90;;;;;;5095003;28;19904;-81